createdAt,value
2018-07-28T00:00:35.811Z,37.36
2018-07-28T00:03:06.483Z,37.80
2018-07-28T00:05:37.188Z,37.38
2018-07-28T00:08:07.849Z,37.24
2018-07-28T00:10:38.639Z,37.92
2018-07-28T00:13:09.312Z,37.84
2018-07-28T00:15:40.020Z,37.35
2018-07-28T00:18:10.678Z,37.42
2018-07-28T00:20:41.352Z,37.58
2018-07-28T00:23:12.084Z,37.02
2018-07-28T00:25:47.804Z,37.16
2018-07-28T00:28:18.596Z,37.05
2018-07-28T00:30:49.380Z,36.77
2018-07-28T00:33:20.038Z,36.49
2018-07-28T00:35:50.692Z,36.82
2018-07-28T00:38:21.415Z,36.86
2018-07-28T00:40:52.158Z,36.52
2018-07-28T00:43:22.875Z,36.67
2018-07-28T00:45:53.510Z,36.33
2018-07-28T00:48:24.179Z,36.07
2018-07-28T00:50:54.908Z,36.13
2018-07-28T00:53:25.609Z,36.75
2018-07-28T00:55:56.327Z,36.52
2018-07-28T00:58:27.061Z,36.03
2018-07-28T01:00:57.425Z,36.62
2018-07-28T01:03:27.994Z,36.29
2018-07-28T01:05:58.636Z,36.03
2018-07-28T01:08:29.320Z,36.32
2018-07-28T01:11:00.004Z,36.35
2018-07-28T01:13:30.712Z,36.39
2018-07-28T01:16:01.416Z,36.04
2018-07-28T01:18:32.163Z,35.72
2018-07-28T01:21:02.920Z,36.16
2018-07-28T01:23:33.748Z,36.32
2018-07-28T01:26:04.632Z,36.42
2018-07-28T01:28:35.414Z,36.16
2018-07-28T01:31:06.148Z,35.96
2018-07-28T01:33:36.932Z,36.51
2018-07-28T01:36:07.707Z,36.15
2018-07-28T01:38:38.368Z,36.71
2018-07-28T01:41:09.054Z,36.40
2018-07-28T01:43:39.769Z,37.06
2018-07-28T01:46:10.423Z,36.62
2018-07-28T01:48:41.072Z,37.13
2018-07-28T01:51:11.714Z,37.32
2018-07-28T01:53:42.372Z,36.59
2018-07-28T01:56:13.028Z,36.79
2018-07-28T01:58:43.828Z,36.94
2018-07-28T02:01:14.508Z,36.86
2018-07-28T02:03:51.665Z,37.54
2018-07-28T02:06:22.336Z,37.31
2018-07-28T02:08:53.606Z,37.46
2018-07-28T02:11:24.614Z,37.52
2018-07-28T02:13:55.250Z,37.53
2018-07-28T02:16:25.934Z,38.33
2018-07-28T02:18:56.637Z,38.13
2018-07-28T02:21:27.328Z,38.22
2018-07-28T02:23:57.969Z,38.62
2018-07-28T02:26:28.678Z,39.17
2018-07-28T02:28:59.333Z,39.08
2018-07-28T02:31:30.019Z,39.50
2018-07-28T02:34:00.637Z,39.71
2018-07-28T02:36:31.300Z,39.92
2018-07-28T02:39:02.010Z,40.48
2018-07-28T02:41:32.732Z,41.09
2018-07-28T02:44:03.677Z,40.90
2018-07-28T02:46:34.374Z,41.33
2018-07-28T02:49:05.166Z,41.50
2018-07-28T02:51:35.472Z,41.84
2018-07-28T02:54:06.166Z,42.10
2018-07-28T02:56:36.855Z,42.30
2018-07-28T02:59:07.522Z,42.57
2018-07-28T03:01:38.299Z,42.63
2018-07-28T03:04:08.971Z,42.87
2018-07-28T03:06:39.624Z,43.17
2018-07-28T03:09:12.296Z,43.27
2018-07-28T03:11:43.140Z,43.53
2018-07-28T03:14:13.828Z,44.16
2018-07-28T03:16:44.496Z,44.04
2018-07-28T03:19:15.140Z,44.75
2018-07-28T03:21:47.403Z,43.22
2018-07-28T03:24:18.075Z,44.09
2018-07-28T03:26:49.777Z,43.52
2018-07-28T03:29:20.386Z,42.69
2018-07-28T03:31:51.483Z,45.12
2018-07-28T03:34:22.263Z,43.34
2018-07-28T03:36:53.103Z,43.22
2018-07-28T03:39:23.787Z,42.14
2018-07-28T03:41:54.435Z,42.17
2018-07-28T03:44:25.210Z,41.79
2018-07-28T03:46:55.896Z,41.80
2018-07-28T03:49:26.663Z,42.03
2018-07-28T03:52:02.611Z,42.68
2018-07-28T03:54:33.242Z,43.46
2018-07-28T03:57:04.607Z,43.39
2018-07-28T03:59:35.615Z,44.03
2018-07-28T04:02:06.388Z,44.13
2018-07-28T04:04:37.095Z,44.88
2018-07-28T04:07:07.722Z,44.85
2018-07-28T04:09:38.399Z,44.95
2018-07-28T04:12:09.084Z,45.57
2018-07-28T04:14:39.766Z,45.66
2018-07-28T04:17:15.656Z,45.69
2018-07-28T04:19:46.304Z,46.00
2018-07-28T04:22:16.935Z,45.91
2018-07-28T04:24:47.637Z,46.43
2018-07-28T04:27:18.285Z,46.58
2018-07-28T04:29:48.963Z,46.75
2018-07-28T04:32:19.600Z,46.87
2018-07-28T04:34:50.251Z,46.91
2018-07-28T04:37:20.935Z,47.26
2018-07-28T04:39:51.587Z,47.79
2018-07-28T04:42:22.254Z,47.83
2018-07-28T04:44:52.987Z,48.04
2018-07-28T04:47:23.618Z,48.32
2018-07-28T04:49:54.266Z,48.15
2018-07-28T04:52:24.963Z,47.82
2018-07-28T04:54:55.682Z,48.10
2018-07-28T04:57:26.652Z,47.73
2018-07-28T04:59:57.432Z,48.34
2018-07-28T05:02:28.814Z,47.76
2018-07-28T05:04:59.515Z,47.98
2018-07-28T05:07:30.225Z,48.10
2018-07-28T05:10:00.865Z,47.61
2018-07-28T05:12:31.537Z,48.13
2018-07-28T05:15:02.241Z,47.73
2018-07-28T05:17:32.937Z,47.94
2018-07-28T05:20:03.633Z,47.65
2018-07-28T05:22:34.389Z,47.80
2018-07-28T05:25:05.068Z,47.55
2018-07-28T05:27:35.764Z,47.62
2018-07-28T05:30:09.136Z,47.32
2018-07-28T05:32:39.803Z,47.14
2018-07-28T05:35:11.188Z,47.07
2018-07-28T05:37:41.965Z,47.27
2018-07-28T05:40:12.636Z,47.07
2018-07-28T05:42:43.364Z,46.99
2018-07-28T05:45:14.051Z,46.81
2018-07-28T05:47:45.416Z,46.58
2018-07-28T05:50:16.118Z,46.10
2018-07-28T05:52:46.956Z,46.67
2018-07-28T05:55:17.684Z,46.67
2018-07-28T05:57:48.438Z,46.30
2018-07-28T06:00:19.144Z,46.37
2018-07-28T06:02:49.975Z,45.99
2018-07-28T06:05:20.603Z,46.37
2018-07-28T06:07:51.294Z,46.31
2018-07-28T06:10:21.947Z,45.99
2018-07-28T06:12:52.654Z,46.00
2018-07-28T06:15:23.453Z,45.95
2018-07-28T06:17:54.498Z,46.57
2018-07-28T06:20:25.305Z,46.41
2018-07-28T06:22:56.589Z,47.18
2018-07-28T06:25:27.357Z,47.01
2018-07-28T06:27:58.033Z,46.83
2018-07-28T06:30:28.399Z,47.50
2018-07-28T06:32:58.913Z,48.12
2018-07-28T06:35:30.136Z,48.98
2018-07-28T06:38:00.831Z,49.66
2018-07-28T06:40:31.491Z,49.53
2018-07-28T06:43:02.158Z,50.03
2018-07-28T06:45:32.807Z,50.05
2018-07-28T06:48:03.596Z,50.15
2018-07-28T06:50:34.249Z,50.82
2018-07-28T06:53:04.959Z,50.56
2018-07-28T06:55:35.673Z,50.38
2018-07-28T06:58:06.757Z,50.71
2018-07-28T07:00:37.487Z,50.23
2018-07-28T07:03:08.208Z,51.02
2018-07-28T07:05:38.951Z,50.80
2018-07-28T07:08:09.596Z,50.77
2018-07-28T07:10:40.294Z,51.44
2018-07-28T07:13:11.075Z,51.26
2018-07-28T07:15:41.953Z,51.84
2018-07-28T07:18:12.713Z,51.81
2018-07-28T07:20:43.585Z,51.99
2018-07-28T07:23:14.284Z,51.85
2018-07-28T07:25:44.948Z,52.30
2018-07-28T07:28:15.672Z,52.59
2018-07-28T07:30:46.363Z,52.35
2018-07-28T07:33:17.076Z,54.55
2018-07-28T07:35:47.836Z,55.88
2018-07-28T07:38:18.564Z,57.21
2018-07-28T07:40:49.330Z,57.71
2018-07-28T07:43:19.997Z,56.81
2018-07-28T07:45:50.723Z,57.46
2018-07-28T07:48:21.348Z,56.23
2018-07-28T07:50:52.021Z,55.19
2018-07-28T07:53:22.696Z,54.99
2018-07-28T07:55:53.329Z,55.38
2018-07-28T07:58:23.964Z,54.06
2018-07-28T08:00:54.677Z,53.71
2018-07-28T08:03:25.343Z,55.62
2018-07-28T08:05:56.107Z,55.32
2018-07-28T08:08:26.884Z,57.45
2018-07-28T08:10:57.500Z,58.45
2018-07-28T08:13:28.166Z,58.04
2018-07-28T08:15:58.818Z,57.96
2018-07-28T08:18:29.531Z,57.09
2018-07-28T08:21:00.249Z,57.50
2018-07-28T08:23:31.002Z,56.97
2018-07-28T08:26:01.680Z,58.60
2018-07-28T08:28:32.368Z,58.81
2018-07-28T08:31:03.053Z,57.17
2018-07-28T08:33:33.760Z,56.55
2018-07-28T08:36:04.536Z,57.50
2018-07-28T08:38:35.272Z,57.40
2018-07-28T08:41:06.097Z,56.94
2018-07-28T08:43:36.787Z,57.15
2018-07-28T08:46:07.770Z,57.15
2018-07-28T08:48:38.414Z,56.89
2018-07-28T08:51:09.164Z,56.20
2018-07-28T08:53:40.266Z,56.92
2018-07-28T08:56:10.960Z,57.15
2018-07-28T08:58:42.213Z,57.30
2018-07-28T09:01:13.616Z,57.09
2018-07-28T09:03:44.328Z,57.37
2018-07-28T09:06:15.638Z,57.92
2018-07-28T09:08:46.341Z,58.02
2018-07-28T09:11:18.059Z,59.33
2018-07-28T09:13:48.833Z,59.19
2018-07-28T09:16:19.629Z,59.96
2018-07-28T09:18:50.305Z,61.29
2018-07-28T09:21:21.615Z,61.18
2018-07-28T09:23:52.344Z,61.03
2018-07-28T09:26:23.115Z,61.38
2018-07-28T09:28:53.821Z,62.11
2018-07-28T09:31:24.569Z,62.03
2018-07-28T09:33:55.373Z,61.20
2018-07-28T09:36:26.170Z,62.22
2018-07-28T09:38:56.835Z,61.75
2018-07-28T09:41:27.544Z,61.01
2018-07-28T09:43:58.178Z,60.75
2018-07-28T09:46:28.834Z,61.04
2018-07-28T09:48:59.577Z,60.05
2018-07-28T09:51:30.968Z,60.11
2018-07-28T09:54:01.607Z,59.61
2018-07-28T09:56:32.297Z,59.02
2018-07-28T09:59:02.972Z,58.17
2018-07-28T10:01:33.612Z,56.45
2018-07-28T10:04:04.393Z,57.30
2018-07-28T10:06:35.079Z,57.15
2018-07-28T10:09:10.455Z,57.51
2018-07-28T10:11:41.170Z,57.96
2018-07-28T10:14:11.791Z,57.47
2018-07-28T10:16:42.537Z,56.38
2018-07-28T10:19:13.216Z,57.47
2018-07-28T10:21:43.956Z,56.55
2018-07-28T10:24:14.633Z,54.09
2018-07-28T10:26:45.303Z,53.61
2018-07-28T10:29:15.980Z,51.89
2018-07-28T10:31:46.613Z,51.24
2018-07-28T10:34:17.237Z,50.71
2018-07-28T10:36:47.933Z,50.99
2018-07-28T10:39:18.590Z,48.31
2018-07-28T10:41:49.283Z,48.51
2018-07-28T10:44:19.960Z,48.33
2018-07-28T10:46:50.664Z,48.52
2018-07-28T10:49:21.324Z,49.01
2018-07-28T10:51:52.048Z,49.41
2018-07-28T10:54:22.965Z,48.71
2018-07-28T10:56:53.597Z,48.72
2018-07-28T10:59:24.233Z,47.36
2018-07-28T11:01:54.922Z,48.24
2018-07-28T11:04:25.544Z,48.18
2018-07-28T11:06:56.228Z,47.33
2018-07-28T11:09:26.862Z,46.98
2018-07-28T11:11:57.519Z,46.69
2018-07-28T11:14:27.868Z,47.18
2018-07-28T11:16:58.449Z,46.57
2018-07-28T11:19:29.135Z,46.02
2018-07-28T11:21:59.839Z,46.09
2018-07-28T11:24:30.488Z,45.04
2018-07-28T11:27:01.187Z,44.09
2018-07-28T11:29:31.810Z,42.99
2018-07-28T11:33:16.809Z,41.93
2018-07-28T11:36:04.197Z,40.70
2018-07-28T11:38:51.653Z,41.31
2018-07-28T11:41:38.970Z,41.53
2018-07-28T11:44:59.487Z,39.35
2018-07-28T11:47:30.135Z,38.61
2018-07-28T11:50:00.780Z,38.31
2018-07-28T11:52:31.419Z,36.52
2018-07-28T11:55:02.109Z,36.22
2018-07-28T11:57:32.739Z,35.05
2018-07-28T12:00:03.531Z,34.86
2018-07-28T12:02:34.197Z,34.73
2018-07-28T12:05:05.068Z,34.15
2018-07-28T12:07:35.842Z,34.24
2018-07-28T12:10:09.015Z,33.88
2018-07-28T12:12:39.734Z,33.17
2018-07-28T12:15:16.067Z,32.85
2018-07-28T12:17:46.697Z,31.80
2018-07-28T12:20:17.375Z,31.37
2018-07-28T12:22:48.090Z,29.74
2018-07-28T12:25:18.719Z,30.60
2018-07-28T12:27:49.412Z,31.70
2018-07-28T12:30:20.046Z,32.69
2018-07-28T12:32:50.692Z,31.80
2018-07-28T12:35:21.345Z,32.14
2018-07-28T12:37:52.030Z,33.00
2018-07-28T12:40:22.700Z,32.30
2018-07-28T12:42:53.326Z,32.33
2018-07-28T12:45:23.973Z,34.65
2018-07-28T12:47:54.611Z,35.70
2018-07-28T12:50:25.274Z,35.03
2018-07-28T12:52:56.043Z,35.15
2018-07-28T12:55:26.729Z,34.49
2018-07-28T12:57:57.410Z,33.81
2018-07-28T13:00:28.047Z,34.56
2018-07-28T13:02:58.824Z,33.21
2018-07-28T13:05:29.466Z,33.36
2018-07-28T13:08:00.100Z,33.33
2018-07-28T13:10:30.748Z,33.04
2018-07-28T13:13:01.428Z,32.89
2018-07-28T13:15:32.099Z,32.94
2018-07-28T13:18:02.752Z,33.47
2018-07-28T13:20:33.394Z,34.01
2018-07-28T13:23:04.045Z,33.28
2018-07-28T13:25:34.368Z,33.99
2018-07-28T13:28:04.935Z,34.99
2018-07-28T13:30:35.623Z,34.61
2018-07-28T13:33:06.342Z,34.77
2018-07-28T13:35:37.053Z,34.30
2018-07-28T13:38:07.687Z,34.68
2018-07-28T13:40:38.362Z,35.04
2018-07-28T13:43:08.977Z,34.26
2018-07-28T13:45:39.603Z,33.61
2018-07-28T13:48:10.240Z,34.19
2018-07-28T13:50:40.912Z,33.81
2018-07-28T13:53:11.586Z,34.48
2018-07-28T13:55:42.234Z,33.82
2018-07-28T13:58:12.829Z,32.74
2018-07-28T14:00:43.538Z,33.37
2018-07-28T14:03:14.169Z,33.57
2018-07-28T14:05:44.807Z,33.92
2018-07-28T14:08:15.481Z,34.14
2018-07-28T14:10:46.188Z,34.52
2018-07-28T14:13:16.851Z,34.63
2018-07-28T14:15:47.520Z,34.17
2018-07-28T14:18:18.241Z,33.64
2018-07-28T14:20:48.940Z,32.94
2018-07-28T14:23:19.669Z,32.19
2018-07-28T14:25:50.325Z,31.54
2018-07-28T14:28:21.025Z,31.93
2018-07-28T14:30:51.956Z,31.33
2018-07-28T14:33:22.601Z,31.12
2018-07-28T14:35:53.279Z,31.42
2018-07-28T14:38:23.979Z,32.03
2018-07-28T14:40:54.691Z,32.25
2018-07-28T14:43:25.430Z,33.09
2018-07-28T14:45:56.102Z,33.50
2018-07-28T14:48:26.836Z,33.71
2018-07-28T14:50:57.518Z,33.44
2018-07-28T14:53:28.194Z,34.04
2018-07-28T14:55:58.816Z,34.62
2018-07-28T14:58:29.507Z,35.65
2018-07-28T15:01:00.422Z,35.62
2018-07-28T15:03:31.111Z,35.83
2018-07-28T15:06:02.073Z,34.41
2018-07-28T15:08:32.800Z,33.93
2018-07-28T15:11:03.506Z,33.39
2018-07-28T15:13:34.187Z,33.37
2018-07-28T15:16:04.753Z,33.91
2018-07-28T15:18:35.347Z,34.68
2018-07-28T15:21:06.015Z,35.14
2018-07-28T15:23:36.643Z,35.14
2018-07-28T15:26:07.342Z,34.72
2018-07-28T15:28:38.071Z,34.85
2018-07-28T15:31:08.882Z,35.29
2018-07-28T15:33:39.525Z,36.11
2018-07-28T15:36:10.679Z,36.24
2018-07-28T15:38:41.340Z,36.33
2018-07-28T15:41:12.005Z,36.33
2018-07-28T15:43:42.717Z,36.51
2018-07-28T15:46:13.430Z,36.71
2018-07-28T15:48:44.133Z,36.97
2018-07-28T15:51:14.842Z,36.94
2018-07-28T15:53:46.618Z,36.30
2018-07-28T15:56:17.366Z,35.94
2018-07-28T15:58:48.629Z,36.77
2018-07-28T16:01:19.296Z,36.44
2018-07-28T16:04:04.727Z,36.77
2018-07-28T16:06:35.418Z,36.90
2018-07-28T16:09:09.258Z,36.85
2018-07-28T16:11:39.961Z,36.38
2018-07-28T16:14:10.651Z,35.48
2018-07-28T16:16:41.296Z,35.14
2018-07-28T16:19:12.017Z,35.09
2018-07-28T16:21:42.697Z,34.83
2018-07-28T16:24:13.375Z,34.57
2018-07-28T16:26:44.940Z,35.79
2018-07-28T16:29:15.628Z,40.02
2018-07-28T16:31:46.430Z,41.31
2018-07-28T16:34:17.087Z,43.25
2018-07-28T16:36:47.791Z,43.95
2018-07-28T16:39:18.549Z,44.71
2018-07-28T16:41:49.315Z,45.93
2018-07-28T16:44:20.017Z,46.55
2018-07-28T16:46:50.772Z,46.69
2018-07-28T16:49:21.485Z,46.55
2018-07-28T16:51:52.217Z,46.98
2018-07-28T16:54:22.855Z,47.68
2018-07-28T16:56:53.580Z,47.56
2018-07-28T16:59:24.243Z,47.46
2018-07-28T17:01:54.895Z,47.59
2018-07-28T17:04:25.596Z,48.26
2018-07-28T17:06:56.323Z,49.08
2018-07-28T17:09:27.038Z,49.01
2018-07-28T17:11:57.707Z,49.78
2018-07-28T17:14:28.370Z,49.81
2018-07-28T17:16:59.096Z,50.38
2018-07-28T17:19:29.752Z,50.23
2018-07-28T17:22:00.467Z,51.72
2018-07-28T17:24:31.105Z,54.48
2018-07-28T17:27:01.472Z,55.55
2018-07-28T17:29:32.043Z,58.08
2018-07-28T17:32:02.768Z,59.25
2018-07-28T17:34:33.428Z,59.35
2018-07-28T17:37:04.139Z,59.26
2018-07-28T17:39:34.831Z,59.67
2018-07-28T17:42:05.568Z,60.41
2018-07-28T17:44:36.232Z,60.21
2018-07-28T17:47:06.960Z,59.99
2018-07-28T17:49:37.696Z,60.61
2018-07-28T17:52:08.725Z,60.03
2018-07-28T17:54:39.362Z,60.16
2018-07-28T17:57:10.076Z,60.64
2018-07-28T17:59:41.443Z,60.29
2018-07-28T18:02:12.455Z,60.08
2018-07-28T18:04:43.058Z,59.35
2018-07-28T18:07:13.761Z,59.21
2018-07-28T18:09:44.466Z,58.89
2018-07-28T18:12:15.120Z,59.64
2018-07-28T18:14:45.791Z,58.76
2018-07-28T18:17:16.506Z,58.79
2018-07-28T18:19:47.183Z,59.91
2018-07-28T18:22:17.931Z,60.13
2018-07-28T18:24:48.604Z,60.53
2018-07-28T18:27:19.339Z,60.08
2018-07-28T18:29:49.909Z,60.15
2018-07-28T18:32:20.620Z,60.12
2018-07-28T18:34:51.691Z,60.53
2018-07-28T18:37:22.410Z,60.78
2018-07-28T18:39:53.104Z,61.12
2018-07-28T18:42:23.809Z,60.49
2018-07-28T18:44:54.460Z,60.85
2018-07-28T18:47:25.119Z,60.74
2018-07-28T18:49:55.760Z,60.41
2018-07-28T18:52:26.447Z,60.72
2018-07-28T18:54:57.187Z,60.35
2018-07-28T18:57:27.923Z,60.26
2018-07-28T18:59:58.621Z,59.77
2018-07-28T19:02:29.455Z,58.71
2018-07-28T19:05:00.113Z,58.58
2018-07-28T19:07:30.835Z,58.26
2018-07-28T19:10:02.468Z,58.30
2018-07-28T19:12:38.316Z,59.36
2018-07-28T19:15:08.938Z,60.01
2018-07-28T19:17:44.890Z,60.40
2018-07-28T19:20:15.562Z,61.08
2018-07-28T19:22:51.561Z,61.53
2018-07-28T19:25:22.247Z,61.79
2018-07-28T19:27:58.233Z,61.89
2018-07-28T19:30:28.918Z,62.07
2018-07-28T19:32:59.597Z,62.73
2018-07-28T19:36:32.975Z,63.16
2018-07-28T19:39:03.845Z,63.77
2018-07-28T19:41:39.684Z,63.94
2018-07-28T19:44:11.120Z,64.19
2018-07-28T19:46:42.034Z,64.27
2018-07-28T19:49:12.674Z,64.82
2018-07-28T19:51:43.379Z,64.58
2018-07-28T19:54:14.996Z,65.06
2018-07-28T19:56:45.908Z,65.48
2018-07-28T19:59:16.536Z,65.32
2018-07-28T20:01:47.280Z,65.61
2018-07-28T20:04:18.015Z,65.57
2018-07-28T20:06:50.656Z,65.25
2018-07-28T20:09:21.840Z,65.36
2018-07-28T20:11:52.597Z,65.44
2018-07-28T20:14:23.243Z,65.01
2018-07-28T20:16:53.589Z,64.73
2018-07-28T20:19:25.118Z,64.86
2018-07-28T20:21:55.798Z,65.22
2018-07-28T20:24:26.600Z,65.08
2018-07-28T20:26:57.932Z,66.23
2018-07-28T20:29:29.324Z,66.67
2018-07-28T20:32:00.858Z,67.09
2018-07-28T20:34:32.682Z,67.43
2018-07-28T20:37:03.490Z,67.47
2018-07-28T20:39:34.237Z,67.30
2018-07-28T20:42:04.946Z,67.35
2018-07-28T20:44:35.612Z,68.00
2018-07-28T20:47:08.283Z,67.73
2018-07-28T20:49:40.589Z,68.28
2018-07-28T20:52:13.069Z,68.35
2018-07-28T20:54:43.814Z,68.06
2018-07-28T20:57:14.538Z,67.78
2018-07-28T20:59:45.242Z,68.35
2018-07-28T21:02:15.912Z,68.72
2018-07-28T21:04:46.588Z,68.02
2018-07-28T21:07:17.281Z,67.54
2018-07-28T21:09:49.348Z,66.83
2018-07-28T21:15:05.711Z,65.56
2018-07-28T21:17:36.664Z,64.16
2018-07-28T21:20:07.412Z,63.08
2018-07-28T21:22:38.110Z,62.50
2018-07-28T21:25:08.836Z,62.20
2018-07-28T21:27:39.532Z,60.98
2018-07-28T21:30:10.251Z,60.20
2018-07-28T21:32:40.941Z,60.49
2018-07-28T21:35:11.628Z,59.58
2018-07-28T21:37:42.297Z,59.68
2018-07-28T21:40:13.008Z,58.87
2018-07-28T21:42:43.684Z,58.92
2018-07-28T21:45:14.465Z,59.37
2018-07-28T21:47:46.081Z,59.57
2018-07-28T21:50:16.812Z,60.31
2018-07-28T21:52:47.484Z,60.65
2018-07-28T21:55:18.168Z,61.24
2018-07-28T21:57:48.875Z,61.45
2018-07-28T22:00:19.584Z,61.87
2018-07-28T22:02:49.919Z,61.87
2018-07-28T22:05:21.265Z,61.93
2018-07-28T22:07:52.362Z,62.27
2018-07-28T22:10:23.082Z,61.99
2018-07-28T22:12:53.729Z,62.19
2018-07-28T22:15:24.412Z,61.81
2018-07-28T22:17:55.099Z,61.88
2018-07-28T22:20:25.790Z,62.00
2018-07-28T22:22:56.440Z,61.80
2018-07-28T22:25:27.072Z,61.52
2018-07-28T22:27:57.830Z,61.47
2018-07-28T22:30:28.568Z,61.45
2018-07-28T22:32:59.305Z,61.01
2018-07-28T22:35:30.047Z,60.93
2018-07-28T22:38:00.729Z,60.54
2018-07-28T22:40:31.404Z,59.97
2018-07-28T22:43:02.131Z,59.77
2018-07-28T22:45:32.801Z,59.53
2018-07-28T22:48:03.668Z,59.38
2018-07-28T22:50:34.355Z,59.94
2018-07-28T22:53:05.118Z,60.23
2018-07-28T22:55:35.822Z,59.81
2018-07-28T22:58:06.491Z,60.12
2018-07-28T23:00:37.161Z,60.32
2018-07-28T23:03:07.907Z,60.88
2018-07-28T23:05:38.600Z,61.03
2018-07-28T23:08:09.288Z,60.68
2018-07-28T23:10:40.019Z,60.49
2018-07-28T23:13:10.670Z,60.78
2018-07-28T23:15:41.329Z,60.90
2018-07-28T23:18:12.088Z,60.98
2018-07-28T23:20:42.781Z,60.48
2018-07-28T23:23:13.967Z,60.70
2018-07-28T23:25:44.622Z,60.63
2018-07-28T23:28:15.363Z,60.25
2018-07-28T23:30:46.032Z,59.81
2018-07-28T23:33:16.753Z,60.16
2018-07-28T23:35:47.392Z,59.52
2018-07-28T23:38:18.111Z,59.85
2018-07-28T23:40:48.805Z,59.53
2018-07-28T23:43:19.515Z,59.43
2018-07-28T23:45:50.189Z,59.41
2018-07-28T23:48:20.880Z,59.84
2018-07-28T23:50:51.578Z,60.36
2018-07-28T23:53:22.256Z,60.06
2018-07-28T23:55:52.988Z,60.89
2018-07-28T23:58:23.660Z,61.01
